Aérodrome :
LOGIN :

S'inscrire | Disclaimer

   EN    FR    IT 

 










Légende :    VFR   VFR Marginal   IFR   IFR Intensif   IFR Très Intensif
Visi : 
Plafond : 
>= 8 km
>= 3000ft
5 à 8 km
1000 à 3000 ft
1500m à 5 km
500 à 1000 ft
800 à 1500m
200 à 500 ft
< 800m
< 200 ft
Symboles :   Orages  Brouillard  Fortes neiges  Fortes précipitations  Vent > 20 kt
SIGMETs :   Divers  Orages  Givrage  Turbulence  Onde Orograph.  Cendres Volcan.







- Altitude de l'aérodrome : 184 ft
- Code IATA : BRU


EBBR - Bruxelles

DERNIER METAR :
  • 232350Z 19005KT CAVOK 09/07 Q1008 NOSIG

METARs EXPIRÉS :
  • 232320Z 19005KT CAVOK 09/07 Q1009 NOSIG
  • 232250Z 20006KT CAVOK 09/07 Q1008 NOSIG
  • 232220Z 20005KT CAVOK 10/07 Q1009 NOSIG
  • 232150Z 21006KT CAVOK 10/07 Q1009 NOSIG
  • 232120Z 22006KT 190V250 9999 FEW032 10/06 Q1009 NOSIG

TAF TAF EBBR
Valide du 24 à 00h jusqu'au 25 à 06h UTC


232310Z 2400/2506 19005KT 9999 SCT030 BKN040
BECMG 2401/2403 SCT008 BKN012
TEMPO 2402/2406 4000 RA BKN008
PROB30 2406/2409 BKN004
PROB40
TEMPO 2500/2506 4000 BR SCT010 BKN014TCU
Pas de NOTAMs connus pour ce terrain.



MET'MAP, la Météo Aéronautique d'un coup d'oeil ! - Copyright ORBIFLY Décembre 2007 - Disclaimer

ORBIFLY MET'MAP TEAM :

Programmation & Développement : Alexandra Zaïnal
Conception & Développement : Baudouin d'Aumeries
Co-Programmation & Développement : Marc-Olivier Méhu
Soutien technique & logistique : Manuel Goepfert

Contact : metmap@orbifly.com




SOURCES & CREDITS :

   NOAA